createdAt,value
2018-05-11T00:01:11.600Z,8.97
2018-05-11T00:03:39.246Z,9.00
2018-05-11T00:06:06.733Z,9.63
2018-05-11T00:08:34.216Z,9.40
2018-05-11T00:11:01.745Z,9.27
2018-05-11T00:13:29.268Z,8.20
2018-05-11T00:15:56.928Z,7.97
2018-05-11T00:18:24.413Z,8.60
2018-05-11T00:20:51.901Z,9.30
2018-05-11T00:23:19.408Z,8.67
2018-05-11T00:25:46.900Z,9.30
2018-05-11T00:28:14.670Z,7.33
2018-05-11T00:30:42.153Z,9.07
2018-05-11T00:33:09.743Z,7.90
2018-05-11T00:35:37.293Z,8.00
2018-05-11T00:38:04.782Z,9.90
2018-05-11T00:40:32.393Z,8.50
2018-05-11T00:42:59.893Z,7.83
2018-05-11T00:45:27.398Z,8.40
2018-05-11T00:47:54.941Z,9.47
2018-05-11T00:50:22.421Z,9.17
2018-05-11T00:52:50.320Z,7.80
2018-05-11T00:55:29.665Z,8.57
2018-05-11T00:57:57.344Z,8.17
2018-05-11T01:00:24.845Z,8.27
2018-05-11T01:02:52.328Z,8.40
2018-05-11T01:05:19.857Z,8.33
2018-05-11T01:07:47.341Z,9.33
2018-05-11T01:10:14.865Z,8.87
2018-05-11T01:12:42.365Z,8.30
2018-05-11T01:15:09.861Z,7.13
2018-05-11T01:17:37.408Z,7.93
2018-05-11T01:20:04.931Z,8.10
2018-05-11T01:22:32.453Z,8.97
2018-05-11T01:24:59.957Z,8.20
2018-05-11T01:27:27.459Z,6.80
2018-05-11T01:29:54.963Z,8.33
2018-05-11T01:32:22.445Z,8.03
2018-05-11T01:34:49.996Z,8.17
2018-05-11T01:37:17.476Z,8.17
2018-05-11T01:39:45.040Z,7.83
2018-05-11T01:42:12.477Z,8.53
2018-05-11T01:44:39.958Z,7.20
2018-05-11T01:47:07.939Z,8.27
2018-05-11T01:49:35.421Z,7.83
2018-05-11T01:52:02.896Z,8.73
2018-05-11T01:54:30.555Z,8.60
2018-05-11T01:56:58.131Z,8.83
2018-05-11T01:59:25.805Z,8.63
2018-05-11T02:01:53.303Z,7.47
2018-05-11T02:04:20.820Z,8.00
2018-05-11T02:06:48.337Z,7.67
2018-05-11T02:09:15.820Z,8.83
2018-05-11T02:11:45.531Z,8.10
2018-05-11T02:14:13.013Z,8.83
2018-05-11T02:16:40.493Z,8.57
2018-05-11T02:19:08.001Z,8.73
2018-05-11T02:21:35.489Z,10.67
2018-05-11T02:24:03.186Z,9.40
2018-05-11T02:26:30.704Z,10.70
2018-05-11T02:28:58.200Z,12.07
2018-05-11T02:31:25.715Z,11.30
2018-05-11T02:33:53.229Z,9.40
2018-05-11T02:36:21.057Z,8.83
2018-05-11T02:38:48.450Z,9.17
2018-05-11T02:41:15.957Z,8.93
2018-05-11T02:43:43.465Z,7.80
2018-05-11T02:46:10.953Z,9.93
2018-05-11T02:48:38.474Z,7.90
2018-05-11T02:51:05.953Z,8.97
2018-05-11T02:53:33.454Z,7.93
2018-05-11T02:56:00.965Z,9.30
2018-05-11T02:58:28.444Z,9.40
2018-05-11T03:00:55.977Z,8.13
2018-05-11T03:03:23.457Z,9.90
2018-05-11T03:05:50.946Z,9.50
2018-05-11T03:08:18.448Z,8.70
2018-05-11T03:10:45.939Z,10.80
2018-05-11T03:13:13.524Z,10.33
2018-05-11T03:15:41.029Z,10.03
2018-05-11T03:18:08.521Z,10.40
2018-05-11T03:20:36.037Z,10.30
2018-05-11T03:23:03.521Z,9.90
2018-05-11T03:25:31.054Z,8.77
2018-05-11T03:27:58.546Z,9.53
2018-05-11T03:30:26.041Z,10.13
2018-05-11T03:32:53.556Z,10.33
2018-05-11T03:35:21.044Z,11.00
2018-05-11T03:37:48.829Z,9.63
2018-05-11T03:40:16.491Z,9.83
2018-05-11T03:42:43.973Z,9.90
2018-05-11T03:45:11.529Z,10.40
2018-05-11T03:47:39.009Z,9.57
2018-05-11T03:50:06.752Z,10.37
2018-05-11T03:52:34.233Z,9.80
2018-05-11T03:55:01.716Z,10.93
2018-05-11T03:57:29.217Z,9.70
2018-05-11T03:59:56.720Z,10.80
2018-05-11T04:02:36.489Z,9.80
2018-05-11T04:05:15.856Z,9.87
2018-05-11T04:07:55.260Z,11.33
2018-05-11T04:10:22.754Z,11.00
2018-05-11T04:12:50.304Z,9.57
2018-05-11T04:15:17.808Z,10.90
2018-05-11T04:17:45.301Z,10.40
2018-05-11T04:20:13.169Z,10.60
2018-05-11T04:22:40.677Z,10.53
2018-05-11T04:25:08.169Z,11.07
2018-05-11T04:27:35.701Z,10.83
2018-05-11T04:30:03.190Z,10.03
2018-05-11T04:32:31.593Z,10.00
2018-05-11T04:34:59.076Z,11.23
2018-05-11T04:37:26.593Z,10.83
2018-05-11T04:39:54.102Z,11.27
2018-05-11T04:42:21.636Z,11.37
2018-05-11T04:44:49.389Z,10.00
2018-05-11T04:47:16.882Z,10.57
2018-05-11T04:49:44.637Z,10.13
2018-05-11T04:52:12.149Z,10.40
2018-05-11T04:54:39.700Z,9.20
2018-05-11T04:57:07.489Z,7.90
2018-05-11T04:59:34.968Z,8.80
2018-05-11T05:02:02.479Z,10.30
2018-05-11T05:04:29.994Z,9.40
2018-05-11T05:06:57.480Z,8.87
2018-05-11T05:09:25.017Z,10.13
2018-05-11T05:11:52.535Z,10.30
2018-05-11T05:14:20.038Z,11.07
2018-05-11T05:16:48.066Z,10.67
2018-05-11T05:19:15.574Z,9.93
2018-05-11T05:21:43.124Z,10.33
2018-05-11T05:24:10.609Z,9.53
2018-05-11T05:26:38.105Z,10.00
2018-05-11T05:29:05.617Z,12.00
2018-05-11T05:31:33.109Z,13.00
2018-05-11T05:34:00.636Z,11.00
2018-05-11T05:36:28.128Z,11.00
2018-05-11T05:38:55.616Z,13.47
2018-05-11T05:41:23.125Z,13.90
2018-05-11T05:43:50.613Z,13.30
2018-05-11T05:46:18.401Z,13.10
2018-05-11T05:48:45.894Z,12.50
2018-05-11T05:51:13.380Z,12.43
2018-05-11T05:53:40.941Z,13.33
2018-05-11T05:56:08.428Z,12.00
2018-05-11T05:58:36.235Z,9.80
2018-05-11T06:01:03.681Z,12.23
2018-05-11T06:03:31.177Z,12.57
2018-05-11T06:05:58.693Z,12.00
2018-05-11T06:08:26.181Z,12.17
2018-05-11T06:10:53.771Z,11.17
2018-05-11T06:13:21.234Z,12.07
2018-05-11T06:15:48.759Z,11.00
2018-05-11T06:18:16.265Z,9.87
2018-05-11T06:20:43.748Z,9.73
2018-05-11T06:23:11.459Z,13.20
2018-05-11T06:25:38.948Z,11.03
2018-05-11T06:28:06.442Z,10.90
2018-05-11T06:30:33.965Z,10.10
2018-05-11T06:33:01.449Z,9.57
2018-05-11T06:35:29.030Z,10.70
2018-05-11T06:37:56.537Z,12.10
2018-05-11T06:40:24.070Z,11.00
2018-05-11T06:42:51.583Z,12.07
2018-05-11T06:45:19.076Z,10.80
2018-05-11T06:47:46.789Z,9.83
2018-05-11T06:50:14.292Z,14.30
2018-05-11T06:52:41.782Z,11.20
2018-05-11T06:55:09.329Z,10.67
2018-05-11T06:57:36.834Z,13.03
2018-05-11T07:00:04.538Z,11.80
2018-05-11T07:02:32.029Z,11.10
2018-05-11T07:04:59.529Z,11.20
2018-05-11T07:07:27.052Z,12.47
2018-05-11T07:09:54.540Z,10.60
2018-05-11T07:12:22.194Z,12.13
2018-05-11T07:14:49.695Z,12.17
2018-05-11T07:17:17.185Z,11.53
2018-05-11T07:19:44.699Z,11.43
2018-05-11T07:22:12.216Z,11.23
2018-05-11T07:24:39.736Z,13.87
2018-05-11T07:27:07.221Z,13.63
2018-05-11T07:29:34.720Z,13.43
2018-05-11T07:32:02.233Z,15.10
2018-05-11T07:34:29.744Z,14.63
2018-05-11T07:36:57.592Z,13.97
2018-05-11T07:39:25.085Z,14.57
2018-05-11T07:41:52.580Z,13.97
2018-05-11T07:44:20.121Z,15.40
2018-05-11T07:46:47.621Z,15.43
2018-05-11T07:49:15.445Z,16.10
2018-05-11T07:51:42.941Z,12.97
2018-05-11T07:54:10.428Z,14.60
2018-05-11T07:56:37.945Z,14.90
2018-05-11T07:59:05.441Z,13.23
2018-05-11T08:01:32.973Z,13.00
2018-05-11T08:04:00.506Z,15.23
2018-05-11T08:06:27.986Z,15.00
2018-05-11T08:08:55.532Z,12.20
2018-05-11T08:11:23.038Z,11.93
2018-05-11T08:13:50.780Z,11.23
2018-05-11T08:16:18.308Z,11.40
2018-05-11T08:18:45.822Z,10.90
2018-05-11T08:21:13.413Z,12.40
2018-05-11T08:23:40.873Z,11.73
2018-05-11T08:26:08.393Z,11.47
2018-05-11T08:28:35.907Z,10.20
2018-05-11T08:31:03.397Z,11.00
2018-05-11T08:33:30.915Z,10.03
2018-05-11T08:35:58.547Z,11.73
2018-05-11T08:38:26.276Z,11.73
2018-05-11T08:40:53.779Z,10.80
2018-05-11T08:43:21.264Z,10.93
2018-05-11T08:45:48.811Z,9.90
2018-05-11T08:48:16.313Z,10.20
2018-05-11T08:50:44.033Z,10.67
2018-05-11T08:53:11.538Z,10.90
2018-05-11T08:55:39.037Z,9.87
2018-05-11T08:58:06.572Z,9.80
2018-05-11T09:00:34.142Z,10.60
2018-05-11T09:03:02.142Z,9.33
2018-05-11T09:05:29.620Z,9.73
2018-05-11T09:07:57.109Z,9.70
2018-05-11T09:10:24.631Z,9.20
2018-05-11T09:12:52.203Z,9.83
2018-05-11T09:15:20.061Z,9.20
2018-05-11T09:17:47.548Z,10.70
2018-05-11T09:20:15.038Z,10.40
2018-05-11T09:22:42.633Z,10.13
2018-05-11T09:25:10.137Z,10.73
2018-05-11T09:27:37.666Z,10.03
2018-05-11T09:30:05.153Z,9.33
2018-05-11T09:32:32.644Z,8.37
2018-05-11T09:35:00.170Z,7.90
2018-05-11T09:37:27.669Z,8.60
2018-05-11T09:39:55.298Z,7.10
2018-05-11T09:42:22.786Z,8.03
2018-05-11T09:44:50.352Z,7.50
2018-05-11T09:47:17.833Z,6.47
2018-05-11T09:49:45.317Z,6.63
2018-05-11T09:52:13.029Z,6.23
2018-05-11T09:54:40.514Z,7.40
2018-05-11T09:57:08.013Z,6.37
2018-05-11T09:59:35.574Z,6.70
2018-05-11T10:02:03.145Z,7.43
2018-05-11T10:04:30.799Z,9.03
2018-05-11T10:06:58.288Z,8.70
2018-05-11T10:09:25.802Z,9.33
2018-05-11T10:11:53.306Z,8.93
2018-05-11T10:14:20.879Z,10.07
2018-05-11T10:16:48.567Z,8.87
2018-05-11T10:19:16.046Z,8.63
2018-05-11T10:21:43.541Z,12.30
2018-05-11T10:24:11.086Z,12.50
2018-05-11T10:26:38.659Z,13.63
2018-05-11T10:29:06.440Z,13.20
2018-05-11T10:31:33.915Z,12.87
2018-05-11T10:34:01.462Z,12.27
2018-05-11T10:36:29.052Z,10.80
2018-05-11T10:38:56.570Z,13.20
2018-05-11T10:41:24.093Z,12.20
2018-05-11T10:43:51.590Z,12.37
2018-05-11T10:46:19.115Z,9.90
2018-05-11T10:48:46.718Z,9.50
2018-05-11T10:51:14.183Z,8.80
2018-05-11T10:53:42.151Z,8.90
2018-05-11T10:56:09.637Z,9.07
2018-05-11T10:58:37.114Z,7.20
2018-05-11T11:01:04.653Z,7.73
2018-05-11T11:03:32.137Z,9.00
2018-05-11T11:05:59.827Z,8.77
2018-05-11T11:08:27.329Z,8.30
2018-05-11T11:10:54.860Z,10.20
2018-05-11T11:13:22.381Z,10.80
2018-05-11T11:15:49.885Z,11.83
2018-05-11T11:18:17.412Z,10.30
2018-05-11T11:20:44.897Z,8.90
2018-05-11T11:23:12.385Z,9.30
2018-05-11T11:25:39.898Z,8.00
2018-05-11T11:28:07.403Z,8.53
2018-05-11T11:30:34.922Z,8.50
2018-05-11T11:33:02.407Z,9.40
2018-05-11T11:35:29.925Z,9.47
2018-05-11T11:37:57.433Z,6.53
2018-05-11T11:40:24.921Z,8.73
2018-05-11T11:42:52.452Z,9.07
2018-05-11T11:45:19.931Z,7.73
2018-05-11T11:47:47.444Z,9.47
2018-05-11T11:50:14.988Z,10.40
2018-05-11T11:52:42.481Z,8.90
2018-05-11T11:55:10.188Z,9.73
2018-05-11T11:57:37.628Z,9.60
2018-05-11T12:00:05.221Z,10.37
2018-05-11T12:02:32.748Z,8.63
2018-05-11T12:05:00.249Z,9.37
2018-05-11T12:07:27.974Z,9.50
2018-05-11T12:09:55.464Z,10.57
2018-05-11T12:12:22.948Z,8.90
2018-05-11T12:14:50.457Z,9.40
2018-05-11T12:17:17.970Z,10.53
2018-05-11T12:19:45.932Z,9.00
2018-05-11T12:22:13.421Z,10.47
2018-05-11T12:24:40.937Z,10.53
2018-05-11T12:27:08.456Z,11.07
2018-05-11T12:29:35.945Z,11.43
2018-05-11T12:32:03.629Z,11.60
2018-05-11T12:34:31.120Z,10.90
2018-05-11T12:36:58.605Z,10.30
2018-05-11T12:39:26.145Z,10.77
2018-05-11T12:41:53.641Z,10.10
2018-05-11T12:44:21.325Z,12.87
2018-05-11T12:46:48.825Z,10.00
2018-05-11T12:49:16.317Z,10.20
2018-05-11T12:51:43.825Z,8.33
2018-05-11T12:54:11.319Z,10.20
2018-05-11T12:56:39.212Z,11.30
2018-05-11T12:59:06.710Z,12.30
2018-05-11T13:01:34.216Z,12.73
2018-05-11T13:04:01.729Z,11.00
2018-05-11T13:06:29.225Z,10.53
2018-05-11T13:08:56.746Z,11.03
2018-05-11T13:11:24.237Z,9.37
2018-05-11T13:13:51.762Z,9.47
2018-05-11T13:16:19.296Z,10.13
2018-05-11T13:18:46.789Z,11.40
2018-05-11T13:21:14.339Z,10.67
2018-05-11T13:23:41.829Z,11.13
2018-05-11T13:26:09.317Z,11.63
2018-05-11T13:28:36.852Z,9.90
2018-05-11T13:31:04.338Z,9.30
2018-05-11T13:33:31.893Z,9.97
2018-05-11T13:35:59.406Z,10.47
2018-05-11T13:38:26.909Z,11.90
2018-05-11T13:40:54.424Z,10.47
2018-05-11T13:43:21.920Z,12.00
2018-05-11T13:45:49.856Z,11.20
2018-05-11T13:48:17.367Z,11.43
2018-05-11T13:50:44.857Z,10.77
2018-05-11T13:53:12.377Z,11.37
2018-05-11T13:55:39.862Z,11.60
2018-05-11T13:58:07.389Z,10.90
2018-05-11T14:00:34.888Z,11.30
2018-05-11T14:03:02.379Z,10.73
2018-05-11T14:05:29.904Z,12.60
2018-05-11T14:07:57.393Z,12.07
2018-05-11T14:10:25.013Z,13.40
2018-05-11T14:12:52.597Z,11.40
2018-05-11T14:15:20.093Z,11.70
2018-05-11T14:17:47.650Z,10.00
2018-05-11T14:20:15.121Z,10.33
2018-05-11T14:22:42.933Z,11.23
2018-05-11T14:25:10.438Z,11.40
2018-05-11T14:27:37.925Z,10.53
2018-05-11T14:30:05.439Z,10.30
2018-05-11T14:32:32.962Z,10.20
2018-05-11T14:35:00.493Z,11.40
2018-05-11T14:37:27.987Z,11.37
2018-05-11T14:39:55.502Z,9.60
2018-05-11T14:42:23.029Z,10.63
2018-05-11T14:44:50.517Z,11.47
2018-05-11T14:47:18.117Z,12.33
2018-05-11T14:49:45.740Z,12.83
2018-05-11T14:52:13.157Z,11.47
2018-05-11T14:54:40.672Z,12.20
2018-05-11T14:57:08.164Z,12.30
2018-05-11T14:59:35.865Z,11.93
2018-05-11T15:02:03.371Z,11.27
2018-05-11T15:04:30.865Z,13.40
2018-05-11T15:06:58.402Z,13.20
2018-05-11T15:09:25.889Z,11.60
2018-05-11T15:11:53.447Z,11.87
2018-05-11T15:14:20.942Z,13.13
2018-05-11T15:16:48.445Z,11.73
2018-05-11T15:19:15.957Z,10.23
2018-05-11T15:21:43.449Z,12.13
2018-05-11T15:24:11.153Z,11.60
2018-05-11T15:26:38.661Z,11.63
2018-05-11T15:29:06.156Z,11.60
2018-05-11T15:31:33.677Z,11.50
2018-05-11T15:34:01.168Z,13.63
2018-05-11T15:36:28.958Z,12.53
2018-05-11T15:38:56.532Z,12.97
2018-05-11T15:41:24.038Z,11.97
2018-05-11T15:43:51.564Z,12.70
2018-05-11T15:46:19.149Z,12.90
2018-05-11T15:48:46.906Z,11.97
2018-05-11T15:51:14.399Z,13.17
2018-05-11T15:53:41.894Z,10.50
2018-05-11T15:56:09.430Z,10.97
2018-05-11T15:58:36.921Z,11.50
2018-05-11T16:01:04.765Z,11.50
2018-05-11T16:03:32.254Z,10.97
2018-05-11T16:05:59.813Z,10.20
2018-05-11T16:08:27.277Z,11.43
2018-05-11T16:10:54.845Z,10.47
2018-05-11T16:13:22.542Z,10.23
2018-05-11T16:15:50.050Z,11.60
2018-05-11T16:18:17.534Z,9.87
2018-05-11T16:20:45.075Z,10.60
2018-05-11T16:23:12.571Z,10.67
2018-05-11T16:25:40.274Z,9.23
2018-05-11T16:28:07.762Z,10.07
2018-05-11T16:30:35.257Z,10.23
2018-05-11T16:33:02.770Z,11.30
2018-05-11T16:35:30.261Z,11.63
2018-05-11T16:37:58.112Z,11.77
2018-05-11T16:40:25.708Z,10.07
2018-05-11T16:42:53.162Z,13.03
2018-05-11T16:45:20.676Z,10.30
2018-05-11T16:47:48.185Z,12.60
2018-05-11T16:50:15.712Z,12.10
2018-05-11T16:52:43.211Z,11.07
2018-05-11T16:55:10.700Z,10.87
2018-05-11T16:57:38.213Z,10.60
2018-05-11T17:00:05.704Z,11.20
2018-05-11T17:02:33.245Z,10.40
2018-05-11T17:05:00.736Z,12.97
2018-05-11T17:07:28.249Z,11.00
2018-05-11T17:09:55.760Z,10.40
2018-05-11T17:12:23.253Z,10.60
2018-05-11T17:14:51.191Z,8.33
2018-05-11T17:17:18.629Z,9.67
2018-05-11T17:19:46.167Z,8.87
2018-05-11T17:22:13.703Z,9.47
2018-05-11T17:24:41.207Z,9.63
2018-05-11T17:27:08.864Z,9.60
2018-05-11T17:29:36.361Z,10.30
2018-05-11T17:32:03.845Z,9.77
2018-05-11T17:34:31.365Z,10.47
2018-05-11T17:36:58.857Z,9.10
2018-05-11T17:39:26.388Z,10.30
2018-05-11T17:41:53.893Z,11.20
2018-05-11T17:44:21.383Z,10.83
2018-05-11T17:46:48.906Z,9.63
2018-05-11T17:49:16.393Z,10.37
2018-05-11T17:51:43.918Z,8.60
2018-05-11T17:54:11.404Z,9.50
2018-05-11T17:56:38.901Z,9.40
2018-05-11T17:59:06.437Z,8.83
2018-05-11T18:01:33.929Z,10.50
2018-05-11T18:04:01.754Z,8.97
2018-05-11T18:06:29.278Z,8.33
2018-05-11T18:08:56.772Z,9.13
2018-05-11T18:11:24.285Z,10.10
2018-05-11T18:13:51.773Z,9.60
2018-05-11T18:16:19.297Z,10.10
2018-05-11T18:18:46.782Z,9.27
2018-05-11T18:21:14.268Z,9.60
2018-05-11T18:23:41.802Z,10.83
2018-05-11T18:26:09.293Z,8.80
2018-05-11T18:28:37.146Z,9.47
2018-05-11T18:31:04.720Z,10.13
2018-05-11T18:33:32.145Z,10.23
2018-05-11T18:35:59.682Z,9.20
2018-05-11T18:38:27.170Z,10.00
2018-05-11T18:40:54.908Z,10.93
2018-05-11T18:43:22.393Z,9.87
2018-05-11T18:45:49.881Z,10.43
2018-05-11T18:48:17.393Z,11.27
2018-05-11T18:50:44.881Z,11.53
2018-05-11T18:53:13.088Z,12.07
2018-05-11T18:55:40.381Z,11.90
2018-05-11T18:58:07.864Z,11.20
2018-05-11T19:00:35.433Z,12.30
2018-05-11T19:03:02.948Z,12.00
2018-05-11T19:05:30.637Z,12.00
2018-05-11T19:07:58.795Z,12.17
2018-05-11T19:10:26.292Z,11.47
2018-05-11T19:12:53.823Z,11.83
2018-05-11T19:15:21.341Z,12.20
2018-05-11T19:17:49.233Z,9.57
2018-05-11T19:20:16.725Z,12.13
2018-05-11T19:22:44.223Z,11.27
2018-05-11T19:25:11.743Z,13.20
2018-05-11T19:27:39.254Z,10.93
2018-05-11T19:30:06.791Z,12.00
2018-05-11T19:32:34.304Z,12.17
2018-05-11T19:35:01.808Z,12.13
2018-05-11T19:37:29.330Z,14.00
2018-05-11T19:39:56.836Z,12.77
2018-05-11T19:42:24.709Z,12.67
2018-05-11T19:44:52.138Z,13.00
2018-05-11T19:47:19.668Z,12.57
2018-05-11T19:49:47.857Z,11.90
2018-05-11T19:52:15.352Z,12.60
2018-05-11T19:54:43.398Z,11.50
2018-05-11T19:57:11.703Z,11.40
2018-05-11T19:59:39.201Z,11.83
2018-05-11T20:02:06.758Z,12.80
2018-05-11T20:04:34.283Z,13.67
2018-05-11T20:07:02.292Z,13.10
2018-05-11T20:09:29.881Z,13.40
2018-05-11T20:11:57.441Z,12.23
2018-05-11T20:14:24.956Z,14.40
2018-05-11T20:16:52.851Z,12.83
2018-05-11T20:19:20.406Z,13.37
2018-05-11T20:21:47.932Z,12.20
2018-05-11T20:24:15.565Z,11.63
2018-05-11T20:26:43.072Z,13.10
2018-05-11T20:29:10.658Z,12.37
2018-05-11T20:31:38.201Z,14.27
2018-05-11T20:34:05.741Z,14.23
2018-05-11T20:36:33.252Z,12.40
2018-05-11T20:39:00.769Z,13.60
2018-05-11T20:41:28.393Z,12.47
2018-05-11T20:43:55.871Z,12.67
2018-05-11T20:46:23.362Z,13.83
2018-05-11T20:48:50.869Z,13.80
2018-05-11T20:51:18.385Z,12.90
2018-05-11T20:53:45.895Z,14.83
2018-05-11T20:56:13.605Z,13.40
2018-05-11T20:58:41.099Z,12.80
2018-05-11T21:01:08.599Z,14.03
2018-05-11T21:03:36.156Z,19.20
2018-05-11T21:06:03.666Z,16.40
2018-05-11T21:08:31.593Z,17.77
2018-05-11T21:10:59.173Z,15.30
2018-05-11T21:13:26.665Z,17.77
2018-05-11T21:15:54.339Z,17.73
2018-05-11T21:18:21.700Z,18.50
2018-05-11T21:20:49.333Z,17.87
2018-05-11T21:23:16.821Z,15.33
2018-05-11T21:25:44.317Z,16.47
2018-05-11T21:28:11.863Z,15.70
2018-05-11T21:30:39.360Z,15.50
2018-05-11T21:33:06.905Z,16.87
2018-05-11T21:35:34.415Z,16.10
2018-05-11T21:38:01.911Z,17.40
2018-05-11T21:40:29.437Z,16.63
2018-05-11T21:42:56.985Z,16.23
2018-05-11T21:45:24.761Z,16.67
2018-05-11T21:47:52.255Z,18.13
2018-05-11T21:50:19.740Z,15.43
2018-05-11T21:52:47.265Z,16.73
2018-05-11T21:55:14.758Z,18.50
2018-05-11T21:57:42.500Z,18.03
2018-05-11T22:00:09.995Z,17.97
2018-05-11T22:02:37.485Z,18.53
2018-05-11T22:05:05.007Z,17.67
2018-05-11T22:07:32.499Z,15.87
2018-05-11T22:10:00.253Z,17.97
2018-05-11T22:12:27.741Z,17.60
2018-05-11T22:14:55.255Z,17.43
2018-05-11T22:17:22.789Z,17.97
2018-05-11T22:19:50.309Z,16.03
2018-05-11T22:22:18.122Z,18.00
2018-05-11T22:24:45.697Z,18.80
2018-05-11T22:27:13.125Z,17.73
2018-05-11T22:29:40.637Z,16.97
2018-05-11T22:32:08.125Z,18.97
2018-05-11T22:34:35.689Z,17.80
2018-05-11T22:37:03.182Z,19.27
2018-05-11T22:39:30.685Z,19.00
2018-05-11T22:41:58.237Z,19.03
2018-05-11T22:44:25.719Z,18.73
2018-05-11T22:46:53.248Z,18.80
2018-05-11T22:49:20.745Z,19.23
2018-05-11T22:51:48.337Z,19.80
2018-05-11T22:54:15.850Z,18.53
2018-05-11T22:56:43.356Z,20.33
2018-05-11T22:59:11.313Z,19.03
2018-05-11T23:01:38.800Z,18.77
2018-05-11T23:04:06.310Z,18.70
2018-05-11T23:06:33.832Z,18.97
2018-05-11T23:09:01.391Z,19.80
2018-05-11T23:11:29.045Z,21.20
2018-05-11T23:13:56.544Z,18.20
2018-05-11T23:16:24.061Z,18.40
2018-05-11T23:18:51.583Z,17.73
2018-05-11T23:21:19.156Z,18.00
2018-05-11T23:23:47.013Z,18.93
2018-05-11T23:26:14.500Z,17.17
2018-05-11T23:28:41.988Z,19.03
2018-05-11T23:31:09.525Z,17.80
2018-05-11T23:33:37.014Z,17.00
2018-05-11T23:36:04.985Z,17.90
2018-05-11T23:38:32.481Z,19.10
2018-05-11T23:40:59.973Z,18.30
2018-05-11T23:43:27.485Z,18.60
2018-05-11T23:45:54.978Z,15.97
2018-05-11T23:48:22.822Z,17.80
2018-05-11T23:50:50.309Z,18.07
2018-05-11T23:53:17.797Z,19.10
2018-05-11T23:55:45.313Z,19.43
2018-05-11T23:58:12.837Z,18.43
